sensor_id;sensor_type;location;lat;lon;timestamp;P1;durP1;ratioP1;P2;durP2;ratioP2
16173;SDS011;14031;50.158;8.626;2024-03-23T00:55:35;11.60;;;9.53;;
16173;SDS011;14031;50.158;8.626;2024-03-23T00:58:02;12.87;;;10.20;;
16173;SDS011;14031;50.158;8.626;2024-03-23T01:00:28;11.17;;;9.97;;
16173;SDS011;14031;50.158;8.626;2024-03-23T01:02:55;13.93;;;11.37;;
16173;SDS011;14031;50.158;8.626;2024-03-23T01:05:20;12.43;;;11.10;;
16173;SDS011;14031;50.158;8.626;2024-03-23T01:07:47;13.33;;;10.33;;
16173;SDS011;14031;50.158;8.626;2024-03-23T01:10:13;16.13;;;11.80;;
16173;SDS011;14031;50.158;8.626;2024-03-23T01:12:41;11.77;;;10.57;;
16173;SDS011;14031;50.158;8.626;2024-03-23T01:15:07;12.23;;;11.00;;
16173;SDS011;14031;50.158;8.626;2024-03-23T01:17:34;16.00;;;10.73;;
16173;SDS011;14031;50.158;8.626;2024-03-23T01:20:00;13.27;;;10.80;;
16173;SDS011;14031;50.158;8.626;2024-03-23T01:22:27;12.10;;;10.90;;
16173;SDS011;14031;50.158;8.626;2024-03-23T01:24:52;14.10;;;11.20;;
16173;SDS011;14031;50.158;8.626;2024-03-23T01:27:19;15.47;;;11.57;;
16173;SDS011;14031;50.158;8.626;2024-03-23T01:29:46;15.27;;;10.80;;
16173;SDS011;14031;50.158;8.626;2024-03-23T01:32:13;11.70;;;10.50;;
16173;SDS011;14031;50.158;8.626;2024-03-23T01:34:39;12.07;;;10.70;;
16173;SDS011;14031;50.158;8.626;2024-03-23T01:37:06;11.30;;;10.10;;
16173;SDS011;14031;50.158;8.626;2024-03-23T01:39:31;14.73;;;11.30;;
16173;SDS011;14031;50.158;8.626;2024-03-23T01:41:58;17.50;;;11.13;;
16173;SDS011;14031;50.158;8.626;2024-03-23T01:44:24;12.47;;;10.67;;
16173;SDS011;14031;50.158;8.626;2024-03-23T01:46:52;16.53;;;10.60;;
16173;SDS011;14031;50.158;8.626;2024-03-23T01:49:18;13.80;;;11.10;;
16173;SDS011;14031;50.158;8.626;2024-03-23T01:51:45;12.17;;;10.87;;
16173;SDS011;14031;50.158;8.626;2024-03-23T01:54:10;12.83;;;10.40;;
16173;SDS011;14031;50.158;8.626;2024-03-23T01:56:38;13.10;;;10.67;;
16173;SDS011;14031;50.158;8.626;2024-03-23T01:59:04;14.07;;;10.97;;
16173;SDS011;14031;50.158;8.626;2024-03-23T02:01:31;17.10;;;11.70;;
16173;SDS011;14031;50.158;8.626;2024-03-23T02:03:59;12.33;;;10.50;;
16173;SDS011;14031;50.158;8.626;2024-03-23T02:06:26;13.57;;;11.23;;
16173;SDS011;14031;50.158;8.626;2024-03-23T02:08:52;14.73;;;11.37;;
16173;SDS011;14031;50.158;8.626;2024-03-23T02:11:19;14.53;;;11.30;;
16173;SDS011;14031;50.158;8.626;2024-03-23T02:13:45;13.40;;;10.83;;
16173;SDS011;14031;50.158;8.626;2024-03-23T02:16:12;14.53;;;11.63;;
16173;SDS011;14031;50.158;8.626;2024-03-23T02:18:38;14.00;;;10.67;;
16173;SDS011;14031;50.158;8.626;2024-03-23T02:21:06;16.07;;;11.50;;
16173;SDS011;14031;50.158;8.626;2024-03-23T02:23:33;17.30;;;11.53;;
16173;SDS011;14031;50.158;8.626;2024-03-23T02:26:00;13.50;;;11.17;;
16173;SDS011;14031;50.158;8.626;2024-03-23T02:28:26;14.67;;;11.80;;
16173;SDS011;14031;50.158;8.626;2024-03-23T02:30:52;13.77;;;11.50;;
16173;SDS011;14031;50.158;8.626;2024-03-23T02:33:18;14.40;;;11.80;;
16173;SDS011;14031;50.158;8.626;2024-03-23T02:35:45;15.23;;;11.93;;
16173;SDS011;14031;50.158;8.626;2024-03-23T02:38:12;15.97;;;11.73;;
16173;SDS011;14031;50.158;8.626;2024-03-23T02:40:40;14.67;;;11.87;;
16173;SDS011;14031;50.158;8.626;2024-03-23T02:43:06;18.17;;;12.07;;
16173;SDS011;14031;50.158;8.626;2024-03-23T02:45:32;12.70;;;10.33;;
16173;SDS011;14031;50.158;8.626;2024-03-23T02:47:58;13.57;;;11.57;;
16173;SDS011;14031;50.158;8.626;2024-03-23T02:50:25;15.33;;;11.97;;
16173;SDS011;14031;50.158;8.626;2024-03-23T02:52:51;14.30;;;11.23;;
16173;SDS011;14031;50.158;8.626;2024-03-23T02:55:18;12.23;;;10.70;;
16173;SDS011;14031;50.158;8.626;2024-03-23T02:57:45;14.60;;;10.90;;
16173;SDS011;14031;50.158;8.626;2024-03-23T03:00:12;15.03;;;11.40;;
16173;SDS011;14031;50.158;8.626;2024-03-23T03:02:38;18.10;;;11.90;;
16173;SDS011;14031;50.158;8.626;2024-03-23T03:05:05;16.30;;;11.83;;
16173;SDS011;14031;50.158;8.626;2024-03-23T03:07:31;13.77;;;11.37;;
16173;SDS011;14031;50.158;8.626;2024-03-23T03:09:58;16.37;;;12.03;;
16173;SDS011;14031;50.158;8.626;2024-03-23T03:12:24;15.63;;;11.60;;
16173;SDS011;14031;50.158;8.626;2024-03-23T03:14:52;16.30;;;11.87;;
16173;SDS011;14031;50.158;8.626;2024-03-23T03:17:18;11.77;;;10.57;;
16173;SDS011;14031;50.158;8.626;2024-03-23T03:19:45;11.73;;;10.27;;
16173;SDS011;14031;50.158;8.626;2024-03-23T03:22:11;15.57;;;9.77;;
16173;SDS011;14031;50.158;8.626;2024-03-23T03:24:37;16.60;;;10.53;;
16173;SDS011;14031;50.158;8.626;2024-03-23T03:27:03;12.33;;;10.97;;
16173;SDS011;14031;50.158;8.626;2024-03-23T03:29:31;15.10;;;10.90;;
16173;SDS011;14031;50.158;8.626;2024-03-23T03:32:02;16.40;;;11.17;;
16173;SDS011;14031;50.158;8.626;2024-03-23T03:34:28;12.53;;;10.63;;
16173;SDS011;14031;50.158;8.626;2024-03-23T03:36:54;13.33;;;11.67;;
16173;SDS011;14031;50.158;8.626;2024-03-23T03:39:23;16.67;;;11.50;;
16173;SDS011;14031;50.158;8.626;2024-03-23T03:41:48;17.10;;;11.27;;
16173;SDS011;14031;50.158;8.626;2024-03-23T03:44:15;14.13;;;11.57;;
16173;SDS011;14031;50.158;8.626;2024-03-23T03:46:41;15.63;;;11.67;;
16173;SDS011;14031;50.158;8.626;2024-03-23T03:49:10;11.73;;;10.47;;
16173;SDS011;14031;50.158;8.626;2024-03-23T03:51:35;14.73;;;10.77;;
16173;SDS011;14031;50.158;8.626;2024-03-23T03:54:02;14.00;;;10.93;;
16173;SDS011;14031;50.158;8.626;2024-03-23T03:56:28;13.93;;;11.60;;
16173;SDS011;14031;50.158;8.626;2024-03-23T03:58:55;12.43;;;10.77;;
16173;SDS011;14031;50.158;8.626;2024-03-23T04:01:21;13.23;;;10.80;;
16173;SDS011;14031;50.158;8.626;2024-03-23T04:03:47;15.50;;;10.90;;
16173;SDS011;14031;50.158;8.626;2024-03-23T04:06:19;16.13;;;11.70;;
16173;SDS011;14031;50.158;8.626;2024-03-23T04:08:46;13.13;;;11.37;;
16173;SDS011;14031;50.158;8.626;2024-03-23T04:11:12;17.27;;;12.03;;
16173;SDS011;14031;50.158;8.626;2024-03-23T04:13:39;17.67;;;11.30;;
16173;SDS011;14031;50.158;8.626;2024-03-23T04:16:06;18.57;;;10.60;;
16173;SDS011;14031;50.158;8.626;2024-03-23T04:18:33;10.30;;;7.40;;
16173;SDS011;14031;50.158;8.626;2024-03-23T04:21:00;5.53;;;5.03;;
16173;SDS011;14031;50.158;8.626;2024-03-23T04:23:28;4.53;;;4.10;;
16173;SDS011;14031;50.158;8.626;2024-03-23T04:25:53;3.77;;;3.47;;
16173;SDS011;14031;50.158;8.626;2024-03-23T04:28:20;3.13;;;2.93;;
16173;SDS011;14031;50.158;8.626;2024-03-23T04:30:46;2.60;;;2.40;;
16173;SDS011;14031;50.158;8.626;2024-03-23T04:33:13;2.27;;;2.07;;
16173;SDS011;14031;50.158;8.626;2024-03-23T04:35:39;2.70;;;1.90;;
16173;SDS011;14031;50.158;8.626;2024-03-23T04:38:05;1.70;;;1.60;;
16173;SDS011;14031;50.158;8.626;2024-03-23T04:40:34;1.50;;;1.40;;
16173;SDS011;14031;50.158;8.626;2024-03-23T04:43:00;1.40;;;1.30;;
16173;SDS011;14031;50.158;8.626;2024-03-23T04:45:27;1.43;;;1.40;;
16173;SDS011;14031;50.158;8.626;2024-03-23T04:47:54;0.90;;;0.90;;
16173;SDS011;14031;50.158;8.626;2024-03-23T04:50:19;1.17;;;0.80;;
16173;SDS011;14031;50.158;8.626;2024-03-23T04:52:46;0.80;;;0.80;;
16173;SDS011;14031;50.158;8.626;2024-03-23T04:55:13;0.60;;;0.60;;
16173;SDS011;14031;50.158;8.626;2024-03-23T04:57:41;0.50;;;0.50;;
16173;SDS011;14031;50.158;8.626;2024-03-23T05:00:08;0.60;;;0.60;;
16173;SDS011;14031;50.158;8.626;2024-03-23T05:02:42;0.53;;;0.53;;
16173;SDS011;14031;50.158;8.626;2024-03-23T05:05:09;0.73;;;0.73;;
16173;SDS011;14031;50.158;8.626;2024-03-23T05:07:36;0.70;;;0.70;;
16173;SDS011;14031;50.158;8.626;2024-03-23T05:10:03;0.50;;;0.50;;
16173;SDS011;14031;50.158;8.626;2024-03-23T05:12:29;0.67;;;0.67;;
16173;SDS011;14031;50.158;8.626;2024-03-23T05:14:57;2.57;;;1.00;;
16173;SDS011;14031;50.158;8.626;2024-03-23T05:17:23;1.00;;;1.00;;
16173;SDS011;14031;50.158;8.626;2024-03-23T05:19:50;0.83;;;0.83;;
16173;SDS011;14031;50.158;8.626;2024-03-23T05:22:15;1.23;;;1.23;;
16173;SDS011;14031;50.158;8.626;2024-03-23T05:24:44;1.40;;;1.30;;
16173;SDS011;14031;50.158;8.626;2024-03-23T05:27:10;1.13;;;1.13;;
16173;SDS011;14031;50.158;8.626;2024-03-23T05:29:37;0.90;;;0.90;;
16173;SDS011;14031;50.158;8.626;2024-03-23T05:32:04;0.93;;;0.93;;
16173;SDS011;14031;50.158;8.626;2024-03-23T05:34:31;1.20;;;1.20;;
16173;SDS011;14031;50.158;8.626;2024-03-23T05:36:57;1.00;;;1.00;;
16173;SDS011;14031;50.158;8.626;2024-03-23T05:39:23;0.97;;;0.97;;
16173;SDS011;14031;50.158;8.626;2024-03-23T05:41:49;1.20;;;1.20;;
16173;SDS011;14031;50.158;8.626;2024-03-23T05:44:16;1.40;;;1.30;;
16173;SDS011;14031;50.158;8.626;2024-03-23T05:46:42;2.13;;;1.40;;
16173;SDS011;14031;50.158;8.626;2024-03-23T05:49:15;1.00;;;1.00;;
16173;SDS011;14031;50.158;8.626;2024-03-23T05:51:42;1.53;;;1.43;;
16173;SDS011;14031;50.158;8.626;2024-03-23T05:54:08;1.30;;;1.30;;
16173;SDS011;14031;50.158;8.626;2024-03-23T05:56:34;1.20;;;1.20;;
16173;SDS011;14031;50.158;8.626;2024-03-23T05:59:00;1.20;;;1.20;;
16173;SDS011;14031;50.158;8.626;2024-03-23T06:01:28;0.80;;;0.80;;
16173;SDS011;14031;50.158;8.626;2024-03-23T06:03:57;1.23;;;1.23;;
16173;SDS011;14031;50.158;8.626;2024-03-23T06:06:27;0.80;;;0.80;;
16173;SDS011;14031;50.158;8.626;2024-03-23T06:08:55;0.67;;;0.67;;
16173;SDS011;14031;50.158;8.626;2024-03-23T06:11:22;0.40;;;0.40;;
16173;SDS011;14031;50.158;8.626;2024-03-23T06:13:47;0.50;;;0.50;;
16173;SDS011;14031;50.158;8.626;2024-03-23T06:16:14;0.57;;;0.57;;
16173;SDS011;14031;50.158;8.626;2024-03-23T06:18:40;0.40;;;0.40;;
16173;SDS011;14031;50.158;8.626;2024-03-23T06:21:12;0.30;;;0.30;;
16173;SDS011;14031;50.158;8.626;2024-03-23T06:23:40;0.20;;;0.20;;
16173;SDS011;14031;50.158;8.626;2024-03-23T06:26:06;0.33;;;0.33;;
16173;SDS011;14031;50.158;8.626;2024-03-23T06:28:32;0.33;;;0.33;;
16173;SDS011;14031;50.158;8.626;2024-03-23T06:30:59;0.30;;;0.30;;
16173;SDS011;14031;50.158;8.626;2024-03-23T06:33:25;0.20;;;0.20;;
16173;SDS011;14031;50.158;8.626;2024-03-23T06:35:52;0.30;;;0.30;;
16173;SDS011;14031;50.158;8.626;2024-03-23T06:38:18;0.60;;;0.60;;
16173;SDS011;14031;50.158;8.626;2024-03-23T06:40:46;0.30;;;0.30;;
16173;SDS011;14031;50.158;8.626;2024-03-23T06:43:13;0.20;;;0.20;;
16173;SDS011;14031;50.158;8.626;2024-03-23T06:45:40;1.17;;;0.40;;
16173;SDS011;14031;50.158;8.626;2024-03-23T06:48:06;0.33;;;0.33;;
16173;SDS011;14031;50.158;8.626;2024-03-23T06:50:33;0.37;;;0.37;;
16173;SDS011;14031;50.158;8.626;2024-03-23T06:52:59;0.50;;;0.50;;
16173;SDS011;14031;50.158;8.626;2024-03-23T06:55:27;0.50;;;0.50;;
16173;SDS011;14031;50.158;8.626;2024-03-23T06:57:54;0.97;;;0.97;;
16173;SDS011;14031;50.158;8.626;2024-03-23T07:00:21;2.70;;;2.50;;
16173;SDS011;14031;50.158;8.626;2024-03-23T07:02:47;0.90;;;0.90;;
16173;SDS011;14031;50.158;8.626;2024-03-23T07:05:13;0.60;;;0.60;;
16173;SDS011;14031;50.158;8.626;2024-03-23T07:07:39;0.60;;;0.60;;
16173;SDS011;14031;50.158;8.626;2024-03-23T07:10:06;0.70;;;0.70;;
16173;SDS011;14031;50.158;8.626;2024-03-23T07:12:32;2.20;;;0.73;;
16173;SDS011;14031;50.158;8.626;2024-03-23T07:15:00;0.80;;;0.80;;
16173;SDS011;14031;50.158;8.626;2024-03-23T07:17:26;3.07;;;1.17;;
16173;SDS011;14031;50.158;8.626;2024-03-23T07:19:53;0.73;;;0.73;;
16173;SDS011;14031;50.158;8.626;2024-03-23T07:22:19;1.03;;;0.87;;
16173;SDS011;14031;50.158;8.626;2024-03-23T07:24:45;0.90;;;0.90;;
16173;SDS011;14031;50.158;8.626;2024-03-23T07:27:11;1.73;;;1.20;;
16173;SDS011;14031;50.158;8.626;2024-03-23T07:29:38;2.53;;;1.20;;
16173;SDS011;14031;50.158;8.626;2024-03-23T07:32:05;1.60;;;1.00;;
16173;SDS011;14031;50.158;8.626;2024-03-23T07:34:32;1.43;;;1.20;;
16173;SDS011;14031;50.158;8.626;2024-03-23T07:36:58;4.97;;;1.40;;
16173;SDS011;14031;50.158;8.626;2024-03-23T07:39:25;3.23;;;1.43;;
16173;SDS011;14031;50.158;8.626;2024-03-23T07:41:52;1.87;;;1.40;;
16173;SDS011;14031;50.158;8.626;2024-03-23T07:44:19;2.47;;;1.60;;
16173;SDS011;14031;50.158;8.626;2024-03-23T07:46:45;1.90;;;1.50;;
16173;SDS011;14031;50.158;8.626;2024-03-23T07:49:13;2.27;;;1.40;;
16173;SDS011;14031;50.158;8.626;2024-03-23T07:51:39;3.23;;;1.73;;
16173;SDS011;14031;50.158;8.626;2024-03-23T07:54:06;3.03;;;1.50;;
16173;SDS011;14031;50.158;8.626;2024-03-23T07:56:32;4.50;;;1.80;;
16173;SDS011;14031;50.158;8.626;2024-03-23T07:58:59;2.23;;;1.80;;
16173;SDS011;14031;50.158;8.626;2024-03-23T08:01:25;2.40;;;1.70;;
16173;SDS011;14031;50.158;8.626;2024-03-23T08:03:51;2.27;;;1.73;;
16173;SDS011;14031;50.158;8.626;2024-03-23T08:06:20;2.50;;;2.20;;
16173;SDS011;14031;50.158;8.626;2024-03-23T08:08:49;5.50;;;2.27;;
16173;SDS011;14031;50.158;8.626;2024-03-23T08:11:24;5.00;;;2.47;;
16173;SDS011;14031;50.158;8.626;2024-03-23T08:13:51;3.47;;;3.13;;
16173;SDS011;14031;50.158;8.626;2024-03-23T08:16:17;9.93;;;5.20;;
16173;SDS011;14031;50.158;8.626;2024-03-23T08:18:43;4.30;;;3.90;;
16173;SDS011;14031;50.158;8.626;2024-03-23T08:21:09;3.77;;;3.50;;
16173;SDS011;14031;50.158;8.626;2024-03-23T08:23:38;4.97;;;4.47;;
16173;SDS011;14031;50.158;8.626;2024-03-23T08:26:05;4.83;;;3.73;;
16173;SDS011;14031;50.158;8.626;2024-03-23T08:28:33;4.17;;;3.87;;
16173;SDS011;14031;50.158;8.626;2024-03-23T08:31:00;7.07;;;4.47;;
16173;SDS011;14031;50.158;8.626;2024-03-23T08:33:28;5.13;;;4.60;;
16173;SDS011;14031;50.158;8.626;2024-03-23T08:35:55;4.23;;;3.80;;
16173;SDS011;14031;50.158;8.626;2024-03-23T08:38:22;7.50;;;3.17;;
16173;SDS011;14031;50.158;8.626;2024-03-23T08:40:53;4.40;;;3.47;;
16173;SDS011;14031;50.158;8.626;2024-03-23T08:43:22;5.30;;;3.40;;
16173;SDS011;14031;50.158;8.626;2024-03-23T08:45:48;4.83;;;3.23;;
16173;SDS011;14031;50.158;8.626;2024-03-23T08:48:15;4.20;;;3.80;;
16173;SDS011;14031;50.158;8.626;2024-03-23T08:50:41;2.97;;;2.70;;
16173;SDS011;14031;50.158;8.626;2024-03-23T08:53:08;6.53;;;3.27;;
16173;SDS011;14031;50.158;8.626;2024-03-23T08:55:33;6.40;;;2.83;;
16173;SDS011;14031;50.158;8.626;2024-03-23T08:58:02;4.57;;;3.20;;
16173;SDS011;14031;50.158;8.626;2024-03-23T09:00:29;3.60;;;3.00;;
16173;SDS011;14031;50.158;8.626;2024-03-23T09:02:56;3.93;;;3.30;;
16173;SDS011;14031;50.158;8.626;2024-03-23T09:05:22;4.87;;;4.03;;
16173;SDS011;14031;50.158;8.626;2024-03-23T09:07:50;4.17;;;2.80;;
16173;SDS011;14031;50.158;8.626;2024-03-23T09:10:16;4.17;;;2.80;;
16173;SDS011;14031;50.158;8.626;2024-03-23T09:12:42;4.57;;;3.00;;
16173;SDS011;14031;50.158;8.626;2024-03-23T09:15:10;9.80;;;2.80;;
16173;SDS011;14031;50.158;8.626;2024-03-23T09:17:37;6.80;;;2.83;;
16173;SDS011;14031;50.158;8.626;2024-03-23T09:20:02;9.27;;;2.73;;
16173;SDS011;14031;50.158;8.626;2024-03-23T09:22:30;9.10;;;3.23;;
16173;SDS011;14031;50.158;8.626;2024-03-23T09:24:55;6.07;;;3.20;;
16173;SDS011;14031;50.158;8.626;2024-03-23T09:27:22;10.37;;;2.80;;
16173;SDS011;14031;50.158;8.626;2024-03-23T09:29:48;13.80;;;3.43;;
16173;SDS011;14031;50.158;8.626;2024-03-23T09:32:16;12.50;;;3.33;;
16173;SDS011;14031;50.158;8.626;2024-03-23T09:34:42;6.37;;;2.77;;
16173;SDS011;14031;50.158;8.626;2024-03-23T09:37:08;4.57;;;3.10;;
16173;SDS011;14031;50.158;8.626;2024-03-23T09:39:34;6.47;;;2.77;;
16173;SDS011;14031;50.158;8.626;2024-03-23T09:42:01;7.03;;;2.53;;
16173;SDS011;14031;50.158;8.626;2024-03-23T09:44:28;5.67;;;3.10;;
16173;SDS011;14031;50.158;8.626;2024-03-23T09:46:55;4.87;;;2.57;;
16173;SDS011;14031;50.158;8.626;2024-03-23T09:49:22;7.47;;;2.63;;
16173;SDS011;14031;50.158;8.626;2024-03-23T09:51:49;5.87;;;2.63;;
16173;SDS011;14031;50.158;8.626;2024-03-23T09:54:16;3.03;;;2.57;;
16173;SDS011;14031;50.158;8.626;2024-03-23T09:56:43;5.30;;;2.43;;
16173;SDS011;14031;50.158;8.626;2024-03-23T09:59:08;4.57;;;2.30;;
16173;SDS011;14031;50.158;8.626;2024-03-23T10:01:35;5.90;;;2.97;;
16173;SDS011;14031;50.158;8.626;2024-03-23T10:04:01;7.00;;;3.00;;
16173;SDS011;14031;50.158;8.626;2024-03-23T10:06:31;3.63;;;2.10;;
16173;SDS011;14031;50.158;8.626;2024-03-23T10:08:57;5.47;;;2.27;;
16173;SDS011;14031;50.158;8.626;2024-03-23T10:11:24;3.13;;;1.90;;
16173;SDS011;14031;50.158;8.626;2024-03-23T10:13:50;5.53;;;2.30;;
16173;SDS011;14031;50.158;8.626;2024-03-23T10:16:21;10.23;;;2.07;;
16173;SDS011;14031;50.158;8.626;2024-03-23T10:18:48;5.13;;;2.20;;
16173;SDS011;14031;50.158;8.626;2024-03-23T10:21:15;4.83;;;1.80;;
16173;SDS011;14031;50.158;8.626;2024-03-23T10:23:44;4.73;;;1.97;;
16173;SDS011;14031;50.158;8.626;2024-03-23T10:26:15;3.70;;;1.50;;
16173;SDS011;14031;50.158;8.626;2024-03-23T10:28:52;8.10;;;1.77;;
16173;SDS011;14031;50.158;8.626;2024-03-23T10:31:20;5.37;;;1.90;;
16173;SDS011;14031;50.158;8.626;2024-03-23T10:33:46;2.30;;;1.57;;
16173;SDS011;14031;50.158;8.626;2024-03-23T10:36:14;4.50;;;1.70;;
16173;SDS011;14031;50.158;8.626;2024-03-23T10:38:40;1.80;;;1.70;;
16173;SDS011;14031;50.158;8.626;2024-03-23T10:41:09;3.80;;;1.70;;
16173;SDS011;14031;50.158;8.626;2024-03-23T10:43:35;4.40;;;1.70;;
16173;SDS011;14031;50.158;8.626;2024-03-23T10:46:03;3.87;;;2.10;;
16173;SDS011;14031;50.158;8.626;2024-03-23T10:48:29;2.13;;;1.70;;
16173;SDS011;14031;50.158;8.626;2024-03-23T10:50:56;6.77;;;2.60;;
16173;SDS011;14031;50.158;8.626;2024-03-23T10:53:22;4.37;;;1.73;;
16173;SDS011;14031;50.158;8.626;2024-03-23T10:55:51;2.00;;;1.50;;
16173;SDS011;14031;50.158;8.626;2024-03-23T10:58:21;4.43;;;1.90;;
16173;SDS011;14031;50.158;8.626;2024-03-23T11:00:50;5.20;;;1.80;;
16173;SDS011;14031;50.158;8.626;2024-03-23T11:03:34;2.60;;;2.17;;
16173;SDS011;14031;50.158;8.626;2024-03-23T11:06:02;5.37;;;2.70;;
16173;SDS011;14031;50.158;8.626;2024-03-23T11:08:29;2.83;;;1.80;;
16173;SDS011;14031;50.158;8.626;2024-03-23T11:11:17;3.37;;;2.00;;
16173;SDS011;14031;50.158;8.626;2024-03-23T11:13:45;2.23;;;1.33;;
16173;SDS011;14031;50.158;8.626;2024-03-23T11:16:14;1.70;;;1.60;;
16173;SDS011;14031;50.158;8.626;2024-03-23T11:18:40;1.63;;;1.37;;
16173;SDS011;14031;50.158;8.626;2024-03-23T11:21:08;3.23;;;1.60;;
16173;SDS011;14031;50.158;8.626;2024-03-23T11:23:34;2.17;;;1.60;;
16173;SDS011;14031;50.158;8.626;2024-03-23T11:26:01;3.30;;;1.87;;
16173;SDS011;14031;50.158;8.626;2024-03-23T11:28:27;4.53;;;1.20;;
16173;SDS011;14031;50.158;8.626;2024-03-23T11:30:55;1.73;;;1.47;;
16173;SDS011;14031;50.158;8.626;2024-03-23T11:33:21;3.93;;;1.53;;
16173;SDS011;14031;50.158;8.626;2024-03-23T11:35:49;6.00;;;1.90;;
16173;SDS011;14031;50.158;8.626;2024-03-23T11:38:16;2.87;;;1.87;;
16173;SDS011;14031;50.158;8.626;2024-03-23T11:40:44;4.30;;;2.17;;
16173;SDS011;14031;50.158;8.626;2024-03-23T11:43:12;5.83;;;1.67;;
16173;SDS011;14031;50.158;8.626;2024-03-23T11:45:42;3.30;;;2.20;;
16173;SDS011;14031;50.158;8.626;2024-03-23T11:48:10;6.53;;;2.23;;
16173;SDS011;14031;50.158;8.626;2024-03-23T11:50:38;3.93;;;1.97;;
16173;SDS011;14031;50.158;8.626;2024-03-23T11:53:11;6.93;;;2.43;;
16173;SDS011;14031;50.158;8.626;2024-03-23T11:55:42;2.97;;;2.03;;
16173;SDS011;14031;50.158;8.626;2024-03-23T11:58:12;4.37;;;1.97;;
16173;SDS011;14031;50.158;8.626;2024-03-23T12:00:39;3.97;;;1.90;;
16173;SDS011;14031;50.158;8.626;2024-03-23T12:03:06;4.73;;;2.40;;
16173;SDS011;14031;50.158;8.626;2024-03-23T12:05:35;5.07;;;2.17;;
16173;SDS011;14031;50.158;8.626;2024-03-23T12:08:21;2.77;;;2.57;;
16173;SDS011;14031;50.158;8.626;2024-03-23T12:10:50;3.77;;;2.60;;
16173;SDS011;14031;50.158;8.626;2024-03-23T12:13:17;7.10;;;2.37;;
16173;SDS011;14031;50.158;8.626;2024-03-23T12:15:45;3.80;;;2.93;;
16173;SDS011;14031;50.158;8.626;2024-03-23T12:18:11;3.33;;;2.17;;
16173;SDS011;14031;50.158;8.626;2024-03-23T12:20:40;2.67;;;2.47;;
16173;SDS011;14031;50.158;8.626;2024-03-23T12:23:06;3.60;;;2.73;;
16173;SDS011;14031;50.158;8.626;2024-03-23T12:25:34;5.17;;;2.50;;
16173;SDS011;14031;50.158;8.626;2024-03-23T12:28:00;7.40;;;2.20;;
16173;SDS011;14031;50.158;8.626;2024-03-23T12:30:27;4.87;;;2.30;;
16173;SDS011;14031;50.158;8.626;2024-03-23T12:32:53;3.87;;;2.20;;
16173;SDS011;14031;50.158;8.626;2024-03-23T12:35:20;4.23;;;2.30;;
16173;SDS011;14031;50.158;8.626;2024-03-23T12:37:47;4.50;;;2.33;;
16173;SDS011;14031;50.158;8.626;2024-03-23T12:40:14;2.00;;;1.83;;
16173;SDS011;14031;50.158;8.626;2024-03-23T12:42:40;2.47;;;2.10;;
16173;SDS011;14031;50.158;8.626;2024-03-23T12:45:07;3.47;;;1.90;;
16173;SDS011;14031;50.158;8.626;2024-03-23T12:47:33;2.23;;;1.60;;
16173;SDS011;14031;50.158;8.626;2024-03-23T12:50:00;3.13;;;1.90;;
16173;SDS011;14031;50.158;8.626;2024-03-23T12:52:26;4.03;;;2.00;;
16173;SDS011;14031;50.158;8.626;2024-03-23T12:54:55;4.80;;;1.80;;
16173;SDS011;14031;50.158;8.626;2024-03-23T12:57:22;5.17;;;2.17;;
16173;SDS011;14031;50.158;8.626;2024-03-23T12:59:50;2.37;;;1.87;;
16173;SDS011;14031;50.158;8.626;2024-03-23T13:02:16;2.30;;;2.07;;
16173;SDS011;14031;50.158;8.626;2024-03-23T13:04:45;2.70;;;1.63;;
16173;SDS011;14031;50.158;8.626;2024-03-23T13:07:11;4.13;;;2.27;;
16173;SDS011;14031;50.158;8.626;2024-03-23T13:09:38;2.70;;;1.97;;
16173;SDS011;14031;50.158;8.626;2024-03-23T13:12:06;3.93;;;2.40;;
16173;SDS011;14031;50.158;8.626;2024-03-23T13:14:33;4.40;;;1.40;;
16173;SDS011;14031;50.158;8.626;2024-03-23T13:16:59;4.10;;;2.33;;
16173;SDS011;14031;50.158;8.626;2024-03-23T13:19:27;5.33;;;1.30;;
16173;SDS011;14031;50.158;8.626;2024-03-23T13:21:55;3.47;;;1.30;;
16173;SDS011;14031;50.158;8.626;2024-03-23T13:24:22;3.47;;;0.90;;
16173;SDS011;14031;50.158;8.626;2024-03-23T13:26:49;2.53;;;1.10;;
16173;SDS011;14031;50.158;8.626;2024-03-23T13:29:18;0.97;;;0.97;;
16173;SDS011;14031;50.158;8.626;2024-03-23T13:31:44;2.20;;;0.93;;
16173;SDS011;14031;50.158;8.626;2024-03-23T13:34:11;1.07;;;0.90;;
16173;SDS011;14031;50.158;8.626;2024-03-23T13:36:38;0.83;;;0.80;;
16173;SDS011;14031;50.158;8.626;2024-03-23T13:39:05;0.60;;;0.60;;
16173;SDS011;14031;50.158;8.626;2024-03-23T13:41:35;0.63;;;0.63;;
16173;SDS011;14031;50.158;8.626;2024-03-23T13:44:03;0.57;;;0.57;;
16173;SDS011;14031;50.158;8.626;2024-03-23T13:46:31;1.47;;;0.80;;
16173;SDS011;14031;50.158;8.626;2024-03-23T13:48:58;1.53;;;0.77;;
16173;SDS011;14031;50.158;8.626;2024-03-23T13:51:24;0.70;;;0.67;;
16173;SDS011;14031;50.158;8.626;2024-03-23T13:53:52;1.07;;;0.80;;
16173;SDS011;14031;50.158;8.626;2024-03-23T13:56:18;1.80;;;0.50;;
16173;SDS011;14031;50.158;8.626;2024-03-23T13:58:44;0.90;;;0.60;;
16173;SDS011;14031;50.158;8.626;2024-03-23T14:01:12;1.50;;;0.47;;
16173;SDS011;14031;50.158;8.626;2024-03-23T14:03:41;0.67;;;0.50;;
16173;SDS011;14031;50.158;8.626;2024-03-23T14:06:07;0.70;;;0.70;;
16173;SDS011;14031;50.158;8.626;2024-03-23T14:08:34;0.40;;;0.40;;
16173;SDS011;14031;50.158;8.626;2024-03-23T14:11:01;1.60;;;1.50;;
16173;SDS011;14031;50.158;8.626;2024-03-23T14:13:29;2.17;;;1.10;;
16173;SDS011;14031;50.158;8.626;2024-03-23T14:15:56;1.53;;;1.40;;
16173;SDS011;14031;50.158;8.626;2024-03-23T14:18:23;0.87;;;0.70;;
16173;SDS011;14031;50.158;8.626;2024-03-23T14:20:50;1.13;;;1.13;;
16173;SDS011;14031;50.158;8.626;2024-03-23T14:23:18;0.70;;;0.70;;
16173;SDS011;14031;50.158;8.626;2024-03-23T14:25:44;1.60;;;0.70;;
16173;SDS011;14031;50.158;8.626;2024-03-23T14:28:11;1.27;;;0.60;;
16173;SDS011;14031;50.158;8.626;2024-03-23T14:30:39;0.57;;;0.57;;
16173;SDS011;14031;50.158;8.626;2024-03-23T14:33:07;0.65;;;0.45;;
16173;SDS011;14031;50.158;8.626;2024-03-23T14:35:33;0.70;;;0.57;;
16173;SDS011;14031;50.158;8.626;2024-03-23T14:38:01;0.50;;;0.50;;
16173;SDS011;14031;50.158;8.626;2024-03-23T14:40:27;0.45;;;0.45;;
16173;SDS011;14031;50.158;8.626;2024-03-23T14:42:54;0.57;;;0.57;;
16173;SDS011;14031;50.158;8.626;2024-03-23T14:45:20;0.70;;;0.40;;
16173;SDS011;14031;50.158;8.626;2024-03-23T14:47:47;0.50;;;0.50;;
16173;SDS011;14031;50.158;8.626;2024-03-23T14:50:13;0.38;;;0.38;;
16173;SDS011;14031;50.158;8.626;2024-03-23T14:52:41;0.85;;;0.60;;
16173;SDS011;14031;50.158;8.626;2024-03-23T14:55:09;0.77;;;0.60;;
16173;SDS011;14031;50.158;8.626;2024-03-23T14:57:36;0.88;;;0.65;;
16173;SDS011;14031;50.158;8.626;2024-03-23T15:00:02;1.65;;;1.00;;
16173;SDS011;14031;50.158;8.626;2024-03-23T15:02:30;0.55;;;0.55;;
16173;SDS011;14031;50.158;8.626;2024-03-23T15:04:57;1.13;;;0.77;;
16173;SDS011;14031;50.158;8.626;2024-03-23T15:07:24;0.38;;;0.38;;
16173;SDS011;14031;50.158;8.626;2024-03-23T15:09:50;1.60;;;0.80;;
16173;SDS011;14031;50.158;8.626;2024-03-23T15:12:20;0.80;;;0.80;;
16173;SDS011;14031;50.158;8.626;2024-03-23T15:14:46;0.93;;;0.47;;
16173;SDS011;14031;50.158;8.626;2024-03-23T15:17:13;0.93;;;0.75;;
16173;SDS011;14031;50.158;8.626;2024-03-23T15:19:39;0.70;;;0.70;;
16173;SDS011;14031;50.158;8.626;2024-03-23T15:22:07;2.60;;;1.02;;
16173;SDS011;14031;50.158;8.626;2024-03-23T15:24:33;0.50;;;0.50;;
16173;SDS011;14031;50.158;8.626;2024-03-23T15:27:01;1.43;;;1.33;;
16173;SDS011;14031;50.158;8.626;2024-03-23T15:29:28;2.10;;;1.30;;
16173;SDS011;14031;50.158;8.626;2024-03-23T15:31:56;1.20;;;0.77;;
16173;SDS011;14031;50.158;8.626;2024-03-23T15:34:22;1.10;;;1.00;;